createdAt,value
2018-10-02T16:35:34.549Z,10.40
2018-10-02T16:38:02.727Z,10.40
2018-10-02T16:40:32.081Z,10.50
2018-10-02T16:43:00.221Z,10.50
2018-10-02T16:45:28.359Z,10.50
2018-10-02T16:47:56.604Z,10.60
2018-10-02T16:50:24.775Z,10.60
2018-10-02T16:52:53.012Z,10.60
2018-10-02T16:55:21.169Z,10.60
2018-10-02T16:57:49.339Z,10.50
2018-10-02T17:00:17.519Z,10.60
2018-10-02T17:02:45.741Z,10.60
2018-10-02T17:05:13.909Z,10.60
2018-10-02T17:07:42.052Z,10.70
2018-10-02T17:10:10.176Z,10.70
2018-10-02T17:12:38.348Z,10.70
2018-10-02T17:15:06.789Z,10.70
2018-10-02T17:17:34.978Z,10.70
2018-10-02T17:20:03.185Z,10.70
2018-10-02T17:22:31.348Z,10.80
2018-10-02T17:24:59.559Z,10.80
2018-10-02T17:27:27.748Z,10.80
2018-10-02T17:29:55.905Z,10.80
2018-10-02T17:32:24.043Z,10.70
2018-10-02T17:34:52.201Z,10.70
2018-10-02T17:37:20.344Z,10.60
2018-10-02T17:39:48.499Z,10.50
2018-10-02T17:42:16.663Z,10.50
2018-10-02T17:44:44.821Z,10.50
2018-10-02T17:47:12.960Z,10.40
2018-10-02T17:49:41.119Z,10.40
2018-10-02T17:52:09.653Z,10.30
2018-10-02T17:54:37.833Z,10.30
2018-10-02T17:57:06.013Z,10.30
2018-10-02T17:59:34.167Z,10.20
2018-10-02T18:02:02.325Z,10.20
2018-10-02T18:04:30.591Z,10.20
2018-10-02T18:06:58.793Z,10.20
2018-10-02T18:09:26.947Z,10.30
2018-10-02T18:11:55.481Z,10.30
2018-10-02T18:14:23.718Z,10.30
2018-10-02T18:16:51.905Z,10.20
2018-10-02T18:19:24.208Z,10.20
2018-10-02T18:21:52.379Z,10.10
2018-10-02T18:24:20.584Z,10.10
2018-10-02T18:26:48.763Z,10.10
2018-10-02T18:29:16.933Z,10.10
2018-10-02T18:31:45.284Z,10.10
2018-10-02T18:34:13.450Z,10.10
2018-10-02T18:36:41.617Z,10.10
2018-10-02T18:39:09.880Z,10.10
2018-10-02T18:41:38.136Z,10.20
2018-10-02T18:44:06.354Z,10.20
2018-10-02T18:46:35.107Z,10.20
2018-10-02T18:49:06.166Z,10.20
2018-10-02T18:51:34.293Z,10.30
2018-10-02T18:54:06.149Z,10.30
2018-10-02T18:56:34.483Z,10.40
2018-10-02T18:59:02.664Z,10.40
2018-10-02T19:01:30.837Z,10.50
2018-10-02T19:03:59.013Z,10.50
2018-10-02T19:06:27.942Z,10.60
2018-10-02T19:09:01.675Z,10.60
2018-10-02T19:11:35.274Z,10.60
2018-10-02T19:14:03.689Z,10.60
2018-10-02T19:16:33.565Z,10.60
2018-10-02T19:19:01.737Z,10.60
2018-10-02T19:21:30.217Z,10.70
2018-10-02T19:23:58.399Z,10.70
2018-10-02T19:26:28.840Z,10.80
2018-10-02T19:28:56.982Z,10.80
2018-10-02T19:31:30.683Z,10.80
2018-10-02T19:33:59.573Z,10.80
2018-10-02T19:36:27.753Z,10.80
2018-10-02T19:38:57.886Z,10.80
2018-10-02T19:41:26.721Z,10.80
2018-10-02T19:43:55.271Z,10.80
2018-10-02T19:46:26.904Z,10.80
2018-10-02T19:48:55.488Z,10.80
2018-10-02T19:51:29.039Z,10.80
2018-10-02T19:53:57.508Z,10.80
2018-10-02T19:56:27.002Z,10.90
2018-10-02T19:58:55.940Z,10.90
2018-10-02T20:01:24.971Z,10.90
2018-10-02T20:03:53.960Z,11.00
2018-10-02T20:06:22.125Z,11.10
2018-10-02T20:08:50.320Z,11.10
2018-10-02T20:11:18.580Z,11.10
2018-10-02T20:13:46.847Z,11.20
2018-10-02T20:16:14.954Z,11.20
2018-10-02T20:18:43.118Z,11.20
2018-10-02T20:21:11.293Z,11.20
2018-10-02T20:23:39.458Z,11.30
2018-10-02T20:26:07.629Z,11.30
2018-10-02T20:28:36.052Z,11.30
2018-10-02T20:31:04.250Z,11.30
2018-10-02T20:33:32.424Z,11.30
2018-10-02T20:36:00.594Z,11.30
2018-10-02T20:38:28.767Z,11.30
2018-10-02T20:40:56.908Z,11.40
2018-10-02T20:43:25.069Z,11.40
2018-10-02T20:45:53.209Z,11.40
2018-10-02T20:48:21.361Z,11.40
2018-10-02T20:50:49.668Z,11.50
2018-10-02T20:53:17.821Z,11.50
2018-10-02T20:55:46.261Z,11.50
2018-10-02T20:58:14.433Z,11.50
